WEATHER/FLIGHT PLANNING

Hattiesburg Radar

 

 

 

 

Weather Links

Flight Planning Links

 

METAR

2017/03/27 14:12 KHBG 271412Z AUTO VRB06KT 10SM FEW006 BKN010 BKN015 22/20 A3003 RMK AO2 CIG 008V012 T02220200

TAF

2017/03/27 12:54 TAF KHBG 271151Z 2712/2812 18003KT P6SM SCT009 BKN020 FM271700 19013G20KT P6SM SCT050 FM272300 19011KT P6SM VCTS BKN050CB FM280700 20003KT 2SM BR BKN005 OVC007